createdAt,value
2018-08-16T00:00:26.415Z,16.30
2018-08-16T00:02:55.078Z,16.30
2018-08-16T00:05:23.691Z,16.20
2018-08-16T00:07:52.296Z,16.20
2018-08-16T00:10:20.969Z,16.10
2018-08-16T00:12:50.326Z,16.10
2018-08-16T00:15:20.106Z,16.10
2018-08-16T00:17:48.779Z,16.10
2018-08-16T00:20:17.531Z,16.10
2018-08-16T00:22:46.613Z,16.10
2018-08-16T00:25:15.889Z,16.10
2018-08-16T00:27:44.710Z,16.10
2018-08-16T00:30:18.059Z,16.10
2018-08-16T00:32:46.975Z,16.00
2018-08-16T00:35:17.247Z,16.00
2018-08-16T00:37:45.856Z,16.00
2018-08-16T00:40:15.809Z,16.10
2018-08-16T00:42:44.476Z,16.10
2018-08-16T00:45:13.606Z,16.00
2018-08-16T00:47:42.345Z,15.90
2018-08-16T00:50:12.459Z,15.90
2018-08-16T00:52:41.153Z,15.90
2018-08-16T00:55:11.071Z,15.90
2018-08-16T00:57:39.809Z,15.90
2018-08-16T01:00:10.013Z,15.80
2018-08-16T01:02:38.633Z,15.70
2018-08-16T01:05:07.299Z,15.70
2018-08-16T01:07:35.907Z,15.70
2018-08-16T01:10:05.716Z,15.60
2018-08-16T01:12:34.286Z,15.70
2018-08-16T01:15:02.923Z,15.70
2018-08-16T01:17:31.537Z,15.60
2018-08-16T01:20:00.141Z,15.60
2018-08-16T01:22:28.744Z,15.60
2018-08-16T01:24:57.349Z,15.40
2018-08-16T01:27:25.907Z,15.40
2018-08-16T01:29:54.570Z,15.40
2018-08-16T01:32:23.191Z,15.40
2018-08-16T01:34:51.802Z,15.40
2018-08-16T01:37:20.363Z,15.30
2018-08-16T01:39:48.981Z,15.30
2018-08-16T01:42:18.363Z,15.30
2018-08-16T01:44:46.972Z,15.30
2018-08-16T01:47:15.549Z,15.30
2018-08-16T01:49:44.168Z,15.20
2018-08-16T01:52:12.777Z,15.20
2018-08-16T01:54:41.387Z,15.20
2018-08-16T01:57:10.084Z,15.10
2018-08-16T01:59:38.713Z,15.20
2018-08-16T02:02:07.702Z,15.20
2018-08-16T02:04:36.269Z,15.10
2018-08-16T02:07:04.939Z,15.10
2018-08-16T02:09:33.610Z,15.10
2018-08-16T02:12:02.279Z,15.00
2018-08-16T02:14:30.876Z,14.80
2018-08-16T02:16:59.565Z,14.80
2018-08-16T02:19:28.086Z,14.80
2018-08-16T02:21:56.652Z,14.80
2018-08-16T02:24:25.269Z,14.80
2018-08-16T02:26:53.867Z,14.90
2018-08-16T02:29:22.485Z,14.90
2018-08-16T02:31:51.016Z,14.80
2018-08-16T02:34:19.608Z,14.80
2018-08-16T02:36:48.230Z,14.80
2018-08-16T02:39:16.833Z,14.80
2018-08-16T02:41:45.474Z,14.70
2018-08-16T02:44:14.072Z,14.70
2018-08-16T02:46:42.730Z,14.80
2018-08-16T02:49:11.376Z,14.80
2018-08-16T02:51:39.959Z,14.80
2018-08-16T02:54:08.529Z,14.80
2018-08-16T02:56:37.205Z,14.80
2018-08-16T02:59:05.762Z,14.80
2018-08-16T03:01:34.336Z,14.80
2018-08-16T03:04:02.914Z,14.70
2018-08-16T03:06:31.521Z,14.60
2018-08-16T03:09:00.109Z,14.50
2018-08-16T03:11:28.613Z,14.60
2018-08-16T03:13:57.119Z,14.60
2018-08-16T03:16:25.709Z,14.60
2018-08-16T03:18:54.334Z,14.60
2018-08-16T03:21:22.936Z,14.50
2018-08-16T03:23:51.468Z,14.50
2018-08-16T03:26:20.062Z,14.50
2018-08-16T03:28:48.622Z,14.60
2018-08-16T03:31:17.261Z,14.60
2018-08-16T03:33:45.939Z,14.60
2018-08-16T03:36:14.534Z,14.50
2018-08-16T03:38:43.091Z,14.50
2018-08-16T03:41:11.682Z,14.50
2018-08-16T03:43:40.299Z,14.50
2018-08-16T03:46:08.980Z,14.50
2018-08-16T03:48:37.526Z,14.40
2018-08-16T03:51:06.629Z,14.40
2018-08-16T03:53:35.223Z,14.40
2018-08-16T03:56:03.748Z,14.40
2018-08-16T03:58:32.347Z,14.40
2018-08-16T04:01:00.855Z,14.40
2018-08-16T04:03:29.490Z,14.40
2018-08-16T04:05:58.072Z,14.30
2018-08-16T04:08:26.652Z,14.30
2018-08-16T04:10:55.254Z,14.30
2018-08-16T04:13:23.877Z,14.30
2018-08-16T04:15:52.463Z,14.30
2018-08-16T04:18:21.043Z,14.30
2018-08-16T04:20:49.649Z,14.30
2018-08-16T04:23:18.277Z,14.30
2018-08-16T04:25:46.796Z,14.30
2018-08-16T04:28:15.423Z,14.20
2018-08-16T04:30:44.037Z,14.20
2018-08-16T04:33:12.585Z,14.20
2018-08-16T04:35:41.150Z,14.20
2018-08-16T04:38:09.756Z,14.30
2018-08-16T04:40:38.366Z,14.20
2018-08-16T04:43:06.977Z,14.30
2018-08-16T04:45:35.916Z,14.30
2018-08-16T04:48:04.779Z,14.30
2018-08-16T04:50:33.521Z,14.30
2018-08-16T04:53:02.263Z,14.30
2018-08-16T04:55:31.062Z,14.30
2018-08-16T04:57:59.808Z,14.40
2018-08-16T05:00:28.552Z,14.40
2018-08-16T05:02:57.495Z,14.40
2018-08-16T05:05:26.389Z,14.50
2018-08-16T05:07:55.303Z,14.60
2018-08-16T05:10:24.194Z,14.60
2018-08-16T05:12:52.992Z,14.70
2018-08-16T05:15:21.738Z,14.60
2018-08-16T05:17:50.396Z,14.60
2018-08-16T05:20:19.056Z,14.70
2018-08-16T05:22:47.675Z,14.80
2018-08-16T05:25:16.300Z,14.90
2018-08-16T05:27:44.907Z,14.90
2018-08-16T05:30:13.682Z,15.10
2018-08-16T05:32:42.509Z,15.10
2018-08-16T05:35:11.178Z,15.20
2018-08-16T05:37:39.811Z,15.30
2018-08-16T05:40:10.028Z,15.40
2018-08-16T05:42:39.075Z,15.50
2018-08-16T05:45:08.289Z,15.60
2018-08-16T05:47:37.267Z,15.80
2018-08-16T05:50:08.581Z,15.90
2018-08-16T05:52:37.308Z,15.90
2018-08-16T05:55:06.481Z,16.10
2018-08-16T05:57:35.164Z,16.20
2018-08-16T06:00:05.049Z,16.40
2018-08-16T06:02:33.659Z,16.60
2018-08-16T06:05:02.294Z,16.70
2018-08-16T06:07:31.003Z,16.70
2018-08-16T06:09:59.599Z,16.90
2018-08-16T06:12:28.222Z,16.90
2018-08-16T06:14:56.853Z,17.10
2018-08-16T06:17:25.562Z,17.10
2018-08-16T06:19:54.208Z,17.10
2018-08-16T06:22:22.817Z,17.20
2018-08-16T06:24:51.469Z,17.30
2018-08-16T06:27:20.094Z,17.40
2018-08-16T06:29:48.779Z,17.40
2018-08-16T06:32:17.407Z,17.50
2018-08-16T06:34:46.069Z,17.50
2018-08-16T06:37:14.651Z,17.60
2018-08-16T06:39:43.303Z,17.70
2018-08-16T06:42:11.910Z,17.80
2018-08-16T06:44:40.558Z,17.90
2018-08-16T06:47:10.784Z,18.00
2018-08-16T06:49:39.693Z,18.20
2018-08-16T06:52:08.893Z,18.30
2018-08-16T06:54:37.822Z,18.40
2018-08-16T06:57:06.656Z,18.50
2018-08-16T06:59:35.400Z,18.70
2018-08-16T07:02:04.485Z,18.90
2018-08-16T07:04:33.433Z,18.90
2018-08-16T07:07:02.432Z,19.00
2018-08-16T07:09:31.084Z,19.10
2018-08-16T07:11:59.756Z,19.30
2018-08-16T07:14:28.376Z,19.50
2018-08-16T07:16:57.024Z,19.60
2018-08-16T07:19:25.650Z,19.70
2018-08-16T07:21:54.265Z,19.80
2018-08-16T07:24:22.897Z,20.00
2018-08-16T07:26:51.547Z,20.20
2018-08-16T07:29:20.216Z,20.30
2018-08-16T07:31:48.962Z,20.40
2018-08-16T07:34:17.588Z,20.40
2018-08-16T07:36:46.220Z,20.60
2018-08-16T07:39:14.834Z,20.70
2018-08-16T07:41:43.426Z,20.70
2018-08-16T07:44:11.987Z,20.90
2018-08-16T07:46:40.614Z,21.10
2018-08-16T07:49:09.295Z,21.30
2018-08-16T07:51:38.264Z,21.50
2018-08-16T07:54:06.735Z,21.70
2018-08-16T07:56:35.337Z,21.80
2018-08-16T07:59:04.039Z,21.90
2018-08-16T08:01:32.649Z,22.10
2018-08-16T08:04:01.248Z,22.30
2018-08-16T08:06:29.917Z,22.40
2018-08-16T08:08:58.590Z,22.60
2018-08-16T08:11:27.943Z,22.70
2018-08-16T08:13:56.548Z,22.70
2018-08-16T08:16:25.149Z,22.80
2018-08-16T08:18:53.945Z,22.90
2018-08-16T08:21:22.555Z,23.10
2018-08-16T08:23:51.215Z,23.30
2018-08-16T08:26:19.774Z,23.50
2018-08-16T08:28:48.330Z,23.50
2018-08-16T08:31:16.975Z,23.70
2018-08-16T08:33:45.592Z,23.80
2018-08-16T08:36:25.331Z,23.80
2018-08-16T08:38:54.008Z,24.00
2018-08-16T08:41:22.628Z,24.20
2018-08-16T08:44:02.466Z,24.30
2018-08-16T08:46:31.096Z,24.20
2018-08-16T08:48:59.675Z,24.40
2018-08-16T08:51:28.391Z,24.70
2018-08-16T08:54:08.914Z,24.90
2018-08-16T08:56:48.616Z,25.20
2018-08-16T08:59:17.204Z,25.30
2018-08-16T09:01:45.909Z,25.30
2018-08-16T09:04:14.544Z,25.40
2018-08-16T09:06:43.219Z,25.40
2018-08-16T09:09:11.814Z,25.50
2018-08-16T09:11:51.790Z,25.70
2018-08-16T09:14:31.600Z,25.70
2018-08-16T09:17:00.193Z,25.80
2018-08-16T09:19:28.928Z,26.10
2018-08-16T09:21:57.622Z,26.20
2018-08-16T09:24:26.217Z,26.30
2018-08-16T09:26:54.847Z,26.60
2018-08-16T09:30:39.628Z,26.80
2018-08-16T09:33:19.448Z,27.10
2018-08-16T09:35:48.079Z,27.30
2018-08-16T09:38:16.736Z,27.30
2018-08-16T09:40:45.429Z,27.10
2018-08-16T09:43:13.988Z,27.20
2018-08-16T09:47:25.611Z,27.50
2018-08-16T09:49:54.147Z,27.70
2018-08-16T09:52:22.964Z,28.00
2018-08-16T09:54:51.589Z,28.10
2018-08-16T09:57:20.204Z,28.20
2018-08-16T09:59:48.809Z,28.50
2018-08-16T10:02:18.058Z,28.80
2018-08-16T10:04:46.616Z,28.80
2018-08-16T10:07:15.122Z,28.80
2018-08-16T10:09:43.694Z,28.70
2018-08-16T10:12:12.427Z,28.80
2018-08-16T10:14:41.048Z,28.70
2018-08-16T10:17:09.797Z,28.90
2018-08-16T10:19:38.353Z,29.10
2018-08-16T10:22:07.047Z,29.30
2018-08-16T10:24:35.770Z,29.40
2018-08-16T10:27:04.494Z,29.40
2018-08-16T10:29:33.060Z,29.40
2018-08-16T10:32:01.626Z,29.40
2018-08-16T10:34:30.244Z,29.30
2018-08-16T10:36:58.937Z,29.30
2018-08-16T10:39:27.546Z,29.20
2018-08-16T10:41:56.109Z,29.20
2018-08-16T10:44:24.768Z,29.30
2018-08-16T10:46:53.413Z,29.20
2018-08-16T10:49:21.960Z,29.30
2018-08-16T10:51:50.581Z,29.50
2018-08-16T10:54:19.278Z,29.50
2018-08-16T10:56:47.888Z,29.70
2018-08-16T10:59:16.408Z,29.90
2018-08-16T11:01:45.041Z,29.90
2018-08-16T11:04:13.565Z,30.00
2018-08-16T11:06:42.199Z,30.20
2018-08-16T11:09:10.876Z,30.20
2018-08-16T11:11:40.126Z,30.30
2018-08-16T11:14:08.769Z,30.50
2018-08-16T11:16:37.363Z,30.70
2018-08-16T11:19:06.032Z,30.60
2018-08-16T11:21:34.671Z,30.50
2018-08-16T11:24:03.271Z,30.40
2018-08-16T11:26:31.982Z,30.40
2018-08-16T11:29:00.615Z,30.20
2018-08-16T11:31:29.270Z,30.40
2018-08-16T11:33:57.803Z,30.40
2018-08-16T11:36:26.361Z,30.50
2018-08-16T11:38:54.930Z,30.50
2018-08-16T11:41:23.512Z,30.60
2018-08-16T11:43:52.143Z,30.80
2018-08-16T11:46:20.833Z,30.80
2018-08-16T11:48:49.469Z,31.00
2018-08-16T11:51:18.211Z,31.20
2018-08-16T11:53:46.828Z,31.20
2018-08-16T11:56:15.329Z,31.20
2018-08-16T11:58:44.012Z,31.20
2018-08-16T12:01:12.564Z,31.10
2018-08-16T12:03:41.158Z,31.30
2018-08-16T12:06:09.710Z,31.40
2018-08-16T12:08:39.390Z,31.50
2018-08-16T12:11:08.259Z,31.80
2018-08-16T12:13:36.884Z,31.70
2018-08-16T12:16:05.604Z,31.60
2018-08-16T12:18:34.212Z,31.80
2018-08-16T12:21:03.050Z,31.90
2018-08-16T12:23:31.681Z,32.10
2018-08-16T12:26:00.329Z,32.20
2018-08-16T12:28:28.942Z,31.90
2018-08-16T12:30:57.533Z,31.90
2018-08-16T12:33:26.165Z,31.70
2018-08-16T12:35:54.735Z,31.70
2018-08-16T12:38:23.353Z,31.90
2018-08-16T12:40:51.966Z,32.20
2018-08-16T12:43:20.651Z,32.50
2018-08-16T12:45:49.308Z,32.80
2018-08-16T12:48:17.943Z,33.00
2018-08-16T12:50:46.493Z,32.90
2018-08-16T12:53:15.917Z,32.90
2018-08-16T12:55:44.541Z,32.80
2018-08-16T12:58:13.318Z,32.80
2018-08-16T13:00:43.023Z,32.90
2018-08-16T13:03:11.546Z,32.90
2018-08-16T13:05:40.210Z,32.60
2018-08-16T13:08:09.306Z,32.30
2018-08-16T13:10:37.899Z,32.50
2018-08-16T13:13:06.848Z,32.80
2018-08-16T13:15:35.493Z,33.00
2018-08-16T13:18:04.176Z,32.70
2018-08-16T13:20:32.859Z,32.90
2018-08-16T13:23:02.481Z,33.00
2018-08-16T13:25:31.084Z,33.10
2018-08-16T13:28:00.791Z,33.40
2018-08-16T13:30:29.447Z,33.60
2018-08-16T13:32:57.998Z,33.70
2018-08-16T13:35:27.642Z,33.70
2018-08-16T13:37:56.349Z,33.80
2018-08-16T13:40:25.079Z,33.80
2018-08-16T13:42:53.746Z,33.90
2018-08-16T13:45:22.274Z,33.90
2018-08-16T13:47:50.949Z,33.70
2018-08-16T13:50:20.633Z,33.70
2018-08-16T13:52:49.228Z,33.70
2018-08-16T13:55:17.917Z,33.90
2018-08-16T13:57:46.493Z,33.90
2018-08-16T14:00:15.310Z,34.00
2018-08-16T14:02:43.976Z,33.90
2018-08-16T14:05:12.649Z,33.90
2018-08-16T14:07:41.262Z,33.90
2018-08-16T14:10:09.981Z,33.90
2018-08-16T14:12:38.546Z,34.00
2018-08-16T14:15:07.652Z,34.10
2018-08-16T14:17:36.217Z,34.10
2018-08-16T14:20:05.134Z,34.10
2018-08-16T14:22:33.714Z,33.90
2018-08-16T14:25:02.347Z,33.30
2018-08-16T14:27:31.638Z,33.30
2018-08-16T14:30:00.178Z,33.30
2018-08-16T14:32:28.791Z,33.50
2018-08-16T14:34:57.412Z,33.70
2018-08-16T14:37:26.027Z,33.70
2018-08-16T14:39:54.764Z,33.90
2018-08-16T14:42:23.462Z,33.90
2018-08-16T14:44:52.147Z,33.80
2018-08-16T14:47:20.793Z,33.80
2018-08-16T14:49:49.450Z,33.70
2018-08-16T14:52:18.252Z,33.50
2018-08-16T14:54:46.806Z,33.30
2018-08-16T14:57:15.869Z,33.40
2018-08-16T14:59:44.537Z,33.40
2018-08-16T15:02:13.257Z,33.50
2018-08-16T15:04:41.868Z,33.40
2018-08-16T15:07:10.498Z,33.40
2018-08-16T15:09:39.150Z,33.20
2018-08-16T15:12:08.193Z,33.30
2018-08-16T15:14:36.785Z,33.40
2018-08-16T15:17:05.502Z,33.60
2018-08-16T15:19:34.099Z,33.80
2018-08-16T15:22:02.732Z,33.80
2018-08-16T15:24:31.299Z,33.90
2018-08-16T15:26:59.891Z,33.90
2018-08-16T15:29:28.541Z,34.00
2018-08-16T15:31:57.193Z,34.00
2018-08-16T15:34:25.713Z,34.00
2018-08-16T15:36:54.420Z,34.10
2018-08-16T15:39:23.080Z,33.90
2018-08-16T15:41:51.683Z,34.00
2018-08-16T15:44:20.353Z,33.90
2018-08-16T15:46:48.980Z,33.80
2018-08-16T15:49:18.022Z,33.90
2018-08-16T15:51:46.705Z,33.90
2018-08-16T15:54:15.224Z,33.90
2018-08-16T15:56:43.878Z,33.80
2018-08-16T15:59:12.507Z,33.70
2018-08-16T16:01:42.108Z,33.50
2018-08-16T16:04:10.693Z,33.50
2018-08-16T16:06:39.448Z,33.30
2018-08-16T16:09:09.167Z,33.10
2018-08-16T16:11:37.936Z,33.40
2018-08-16T16:14:07.112Z,33.90
2018-08-16T16:16:35.904Z,34.50
2018-08-16T16:19:04.506Z,35.30
2018-08-16T16:21:33.918Z,35.30
2018-08-16T16:24:02.525Z,35.40
2018-08-16T16:26:31.114Z,35.90
2018-08-16T16:28:59.656Z,35.90
2018-08-16T16:31:28.286Z,36.20
2018-08-16T16:33:57.036Z,36.40
2018-08-16T16:36:25.653Z,36.50
2018-08-16T16:38:54.268Z,36.60
2018-08-16T16:41:22.907Z,36.80
2018-08-16T16:43:51.556Z,37.10
2018-08-16T16:46:20.101Z,36.90
2018-08-16T16:48:48.732Z,37.00
2018-08-16T16:51:18.369Z,37.20
2018-08-16T16:53:46.986Z,37.30
2018-08-16T16:56:15.659Z,37.40
2018-08-16T16:58:44.286Z,37.30
2018-08-16T17:01:13.811Z,37.20
2018-08-16T17:03:42.454Z,37.70
2018-08-16T17:06:11.177Z,37.90
2018-08-16T17:08:39.802Z,38.00
2018-08-16T17:11:08.625Z,38.10
2018-08-16T17:13:37.321Z,37.90
2018-08-16T17:16:06.198Z,37.50
2018-08-16T17:18:34.815Z,37.70
2018-08-16T17:21:03.498Z,37.70
2018-08-16T17:23:32.116Z,37.60
2018-08-16T17:26:00.653Z,37.80
2018-08-16T17:28:29.309Z,38.00
2018-08-16T17:30:57.959Z,38.10
2018-08-16T17:33:28.616Z,38.10
2018-08-16T17:35:57.256Z,38.20
2018-08-16T17:38:25.888Z,38.10
2018-08-16T17:40:54.521Z,38.10
2018-08-16T17:43:23.124Z,38.00
2018-08-16T17:45:51.708Z,37.90
2018-08-16T17:48:20.406Z,37.80
2018-08-16T17:50:49.205Z,37.50
2018-08-16T17:53:17.820Z,37.00
2018-08-16T17:55:46.437Z,36.60
2018-08-16T17:58:15.040Z,35.80
2018-08-16T18:00:43.743Z,34.90
2018-08-16T18:03:12.286Z,34.30
2018-08-16T18:05:40.855Z,33.70
2018-08-16T18:08:09.495Z,32.90
2018-08-16T18:10:38.203Z,32.00
2018-08-16T18:13:06.801Z,31.20
2018-08-16T18:15:35.334Z,30.30
2018-08-16T18:18:04.113Z,29.40
2018-08-16T18:20:32.761Z,28.90
2018-08-16T18:23:01.307Z,28.50
2018-08-16T18:25:29.991Z,28.10
2018-08-16T18:27:58.889Z,27.80
2018-08-16T18:30:27.661Z,27.40
2018-08-16T18:32:57.715Z,27.00
2018-08-16T18:35:26.470Z,26.80
2018-08-16T18:37:55.288Z,26.50
2018-08-16T18:40:24.272Z,26.30
2018-08-16T18:42:53.126Z,26.10
2018-08-16T18:45:21.828Z,26.00
2018-08-16T18:47:50.749Z,25.90
2018-08-16T18:50:19.776Z,25.70
2018-08-16T18:52:48.784Z,25.60
2018-08-16T18:55:18.954Z,25.40
2018-08-16T18:57:47.986Z,25.30
2018-08-16T19:00:16.876Z,25.20
2018-08-16T19:02:45.697Z,25.10
2018-08-16T19:05:14.535Z,25.10
2018-08-16T19:07:43.579Z,25.00
2018-08-16T19:10:12.680Z,24.90
2018-08-16T19:12:41.535Z,24.80
2018-08-16T19:15:10.379Z,24.60
2018-08-16T19:17:39.193Z,24.50
2018-08-16T19:20:08.422Z,24.40
2018-08-16T19:22:37.245Z,24.20
2018-08-16T19:25:06.878Z,24.20
2018-08-16T19:27:35.802Z,24.10
2018-08-16T19:30:05.183Z,24.00
2018-08-16T19:32:33.955Z,23.80
2018-08-16T19:35:02.939Z,23.70
2018-08-16T19:37:31.776Z,23.60
2018-08-16T19:40:00.631Z,23.40
2018-08-16T19:42:29.567Z,23.20
2018-08-16T19:44:58.342Z,23.20
2018-08-16T19:47:27.236Z,23.20
2018-08-16T19:49:56.067Z,23.20
2018-08-16T19:52:24.925Z,23.10
2018-08-16T19:54:53.813Z,23.10
2018-08-16T19:57:22.704Z,23.10
2018-08-16T19:59:51.806Z,23.00
2018-08-16T20:02:21.106Z,22.90
2018-08-16T20:04:50.356Z,22.90
2018-08-16T20:07:19.669Z,22.90
2018-08-16T20:09:48.821Z,22.90
2018-08-16T20:12:17.958Z,22.90
2018-08-16T20:14:47.103Z,22.80
2018-08-16T20:17:16.090Z,22.70
2018-08-16T20:19:44.848Z,22.50
2018-08-16T20:22:16.548Z,22.50
2018-08-16T20:24:45.403Z,22.40
2018-08-16T20:27:15.016Z,22.20
2018-08-16T20:29:43.898Z,22.20
2018-08-16T20:32:12.537Z,22.20
2018-08-16T20:34:41.122Z,22.20
2018-08-16T20:37:09.669Z,22.10
2018-08-16T20:39:38.606Z,22.00
2018-08-16T20:42:07.483Z,22.00
2018-08-16T20:44:36.125Z,21.90
2018-08-16T20:47:05.813Z,21.80
2018-08-16T20:49:34.419Z,21.80
2018-08-16T20:52:03.152Z,21.70
2018-08-16T20:54:31.722Z,21.80
2018-08-16T20:57:00.336Z,21.70
2018-08-16T20:59:28.895Z,21.70
2018-08-16T21:01:57.469Z,21.60
2018-08-16T21:04:26.046Z,21.60
2018-08-16T21:06:55.515Z,21.70
2018-08-16T21:09:24.146Z,21.60
2018-08-16T21:11:52.752Z,21.40
2018-08-16T21:14:21.324Z,21.40
2018-08-16T21:16:49.883Z,21.40
2018-08-16T21:19:18.560Z,21.50
2018-08-16T21:21:47.248Z,21.50
2018-08-16T21:24:15.714Z,21.40
2018-08-16T21:26:44.387Z,21.40
2018-08-16T21:29:12.977Z,21.40
2018-08-16T21:31:41.557Z,21.40
2018-08-16T21:34:10.057Z,21.40
2018-08-16T21:36:38.667Z,21.30
2018-08-16T21:39:09.288Z,21.10
2018-08-16T21:41:38.107Z,21.10
2018-08-16T21:44:06.862Z,21.10
2018-08-16T21:46:35.455Z,21.00
2018-08-16T21:49:04.200Z,20.90
2018-08-16T21:51:32.742Z,20.90
2018-08-16T21:54:01.342Z,20.90
2018-08-16T21:56:29.857Z,20.90
2018-08-16T21:58:58.441Z,20.90
2018-08-16T22:01:27.046Z,20.80
2018-08-16T22:03:55.625Z,20.80
2018-08-16T22:06:35.286Z,20.80
2018-08-16T22:09:04.760Z,20.80
2018-08-16T22:11:33.332Z,20.80
2018-08-16T22:14:01.859Z,20.80
2018-08-16T22:16:30.522Z,20.80
2018-08-16T22:18:59.089Z,20.80
2018-08-16T22:21:27.802Z,20.80
2018-08-16T22:23:56.369Z,20.70
2018-08-16T22:26:25.031Z,20.60
2018-08-16T22:28:53.638Z,20.60
2018-08-16T22:31:22.245Z,20.50
2018-08-16T22:33:50.859Z,20.40
2018-08-16T22:36:19.474Z,20.40
2018-08-16T22:38:48.049Z,20.30
2018-08-16T22:41:16.661Z,20.30
2018-08-16T22:43:45.298Z,20.20
2018-08-16T22:46:13.853Z,20.20
2018-08-16T22:48:42.495Z,20.10
2018-08-16T22:51:11.025Z,20.10
2018-08-16T22:53:39.548Z,20.10
2018-08-16T22:56:08.189Z,20.10
2018-08-16T22:58:36.778Z,20.10
2018-08-16T23:01:05.375Z,20.10
2018-08-16T23:03:34.093Z,20.10
2018-08-16T23:06:02.631Z,20.10
2018-08-16T23:08:31.208Z,20.00
2018-08-16T23:10:59.840Z,19.90
2018-08-16T23:13:28.421Z,19.80
2018-08-16T23:15:57.013Z,19.80
2018-08-16T23:18:25.580Z,19.70
2018-08-16T23:20:54.243Z,19.60
2018-08-16T23:23:22.924Z,19.60
2018-08-16T23:25:51.480Z,19.60
2018-08-16T23:28:20.087Z,19.70
2018-08-16T23:30:48.738Z,19.70
2018-08-16T23:33:17.377Z,19.70
2018-08-16T23:35:46.069Z,19.70
2018-08-16T23:38:14.689Z,19.70
2018-08-16T23:40:43.352Z,19.60
2018-08-16T23:43:11.972Z,19.60
2018-08-16T23:45:40.646Z,19.60
2018-08-16T23:48:44.260Z,19.60
2018-08-16T23:51:12.873Z,19.60
2018-08-16T23:53:41.483Z,19.50
2018-08-16T23:56:10.112Z,19.50
2018-08-16T23:58:38.793Z,19.40
